createdAt,value
2019-03-12T13:46:36.113Z,1003.8
2019-03-12T13:53:46.282Z,1003.4
2019-03-12T13:54:48.773Z,1003.3
2019-03-12T13:55:51.057Z,1003.3
2019-03-12T13:56:54.236Z,1003.3
2019-03-12T13:57:56.422Z,1003.3
2019-03-12T13:58:58.550Z,1003.1
2019-03-12T14:00:00.952Z,1003
2019-03-12T14:01:03.486Z,1003
2019-03-12T14:02:05.957Z,1003
2019-03-12T14:03:08.058Z,1003
2019-03-12T14:04:11.254Z,1002.9
2019-03-12T14:05:13.679Z,1003
2019-03-12T14:06:16.094Z,1003
2019-03-12T14:07:18.200Z,1002.8
2019-03-12T14:08:20.340Z,1002.8
2019-03-12T14:09:22.475Z,1002.7
2019-03-12T14:10:24.981Z,1002.7
2019-03-12T14:11:27.406Z,1002.7
2019-03-12T14:12:29.566Z,1002.7
2019-03-12T14:13:31.687Z,1002.5
2019-03-12T14:14:33.825Z,1002.5
2019-03-12T14:15:35.948Z,1002.5
2019-03-12T14:16:38.069Z,1002.5
2019-03-12T14:17:40.197Z,1002.4
2019-03-12T14:18:42.313Z,1002.4
2019-03-12T14:19:44.441Z,1002.3
2019-03-12T14:20:46.937Z,1002.2
2019-03-12T14:21:49.115Z,1002.2
2019-03-12T14:22:51.320Z,1002.3
2019-03-12T14:23:53.474Z,1002.4
2019-03-12T14:24:55.588Z,1002.3
2019-03-12T14:25:58.117Z,1002.4
2019-03-12T14:27:00.529Z,1002.3
2019-03-12T14:28:02.637Z,1002.3
2019-03-12T14:29:05.148Z,1002.2
2019-03-12T14:30:07.272Z,1002.2
2019-03-12T14:31:09.693Z,1002.2
2019-03-12T14:32:12.499Z,1002.1
2019-03-12T14:33:14.620Z,1002.1
2019-03-12T14:34:17.048Z,1002
2019-03-12T14:35:19.180Z,1001.9
2019-03-12T14:36:21.307Z,1001.9
2019-03-12T14:37:23.713Z,1001.8
2019-03-12T14:38:25.877Z,1001.9
2019-03-12T14:39:28.011Z,1001.9
2019-03-12T14:40:30.124Z,1001.8
2019-03-12T14:41:32.559Z,1001.8
2019-03-12T14:42:34.960Z,1001.7
2019-03-12T14:43:37.376Z,1001.8
2019-03-12T14:44:39.573Z,1001.5
2019-03-12T14:45:41.679Z,1001.6
2019-03-12T14:46:44.102Z,1001.5
2019-03-12T14:47:46.224Z,1001.5
2019-03-12T14:48:48.335Z,1001.4
2019-03-12T14:49:51.107Z,1001.6
2019-03-12T14:50:53.525Z,1001.5
2019-03-12T14:51:56.044Z,1001.4
2019-03-12T14:52:58.199Z,1001.5
2019-03-12T14:54:00.727Z,1001.4
2019-03-12T14:55:02.920Z,1001.4
2019-03-12T14:56:05.035Z,1001.4
2019-03-12T14:57:07.172Z,1001.3
2019-03-12T14:58:09.287Z,1001.4
2019-03-12T14:59:11.401Z,1001.3
2019-03-12T15:00:13.531Z,1001.3
2019-03-12T15:01:15.631Z,1001.4
2019-03-12T15:02:18.342Z,1001.3
2019-03-12T15:03:20.757Z,1001.3
2019-03-12T15:04:22.879Z,1001.1
2019-03-12T15:05:24.989Z,1001.1
2019-03-12T15:06:27.122Z,1001.1
2019-03-12T15:07:29.248Z,1001.1
2019-03-12T15:08:31.370Z,1001
2019-03-12T15:09:33.504Z,1001.1
2019-03-12T15:10:35.617Z,1001.1
2019-03-12T15:11:37.786Z,1001
2019-03-12T15:12:39.903Z,1001
2019-03-12T15:13:42.137Z,1001
2019-03-12T15:14:44.248Z,1000.8
2019-03-12T15:15:46.662Z,1000.8
2019-03-12T15:16:48.796Z,1000.8
2019-03-12T15:17:50.896Z,1000.7
2019-03-12T15:18:53.063Z,1000.8
2019-03-12T15:19:55.204Z,1000.7
2019-03-12T15:20:57.311Z,1000.7
2019-03-12T15:21:59.434Z,1000.7
2019-03-12T15:23:01.961Z,1000.6
2019-03-12T15:24:04.647Z,1000.6
2019-03-12T15:25:07.050Z,1000.6
2019-03-12T15:26:09.165Z,1000.5
2019-03-12T15:27:11.876Z,1000.5
2019-03-12T15:28:13.988Z,1000.5
2019-03-12T15:29:16.128Z,1000.3
2019-03-12T15:30:18.613Z,1000.5
2019-03-12T15:31:20.733Z,1000.2
2019-03-12T15:32:22.865Z,1000.2
2019-03-12T15:33:24.969Z,1000.3
2019-03-12T15:34:27.495Z,1000.2
2019-03-12T15:35:29.605Z,1000.2
2019-03-12T15:36:31.787Z,1000.1
2019-03-12T15:37:33.890Z,1000.1
2019-03-12T15:38:36.025Z,1000.1
2019-03-12T15:39:38.425Z,1000.1
2019-03-12T15:40:40.537Z,1000
2019-03-12T15:41:43.074Z,1000
2019-03-12T15:42:45.471Z,1000
2019-03-12T15:43:47.913Z,1000
2019-03-12T15:44:50.049Z,1000
2019-03-12T15:45:52.458Z,999.8
2019-03-12T15:46:54.566Z,999.8
2019-03-12T15:47:56.713Z,999.9
2019-03-12T15:48:58.830Z,999.8
2019-03-12T15:50:00.954Z,999.7
2019-03-12T15:51:03.363Z,999.8
2019-03-12T15:52:05.799Z,999.7
2019-03-12T15:53:07.920Z,999.5
2019-03-12T15:54:10.036Z,999.6
2019-03-12T15:55:12.239Z,999.7
2019-03-12T15:56:14.940Z,999.6
2019-03-12T15:57:17.059Z,999.5
2019-03-12T15:58:19.206Z,999.5
2019-03-12T15:59:21.331Z,999.6
2019-03-12T16:00:23.443Z,999.3
2019-03-12T16:01:25.563Z,999.4
2019-03-12T16:02:27.691Z,999.5
2019-03-12T16:03:30.130Z,999.3
2019-03-12T16:04:32.253Z,999.3
2019-03-12T16:05:34.377Z,999.4
2019-03-12T16:06:36.771Z,999.3
2019-03-12T16:07:38.908Z,999.3
2019-03-12T16:08:41.439Z,999.3
2019-03-12T16:09:43.585Z,999.3
2019-03-12T16:10:58.582Z,999.2
2019-03-12T16:12:00.832Z,999.2
2019-03-12T16:13:03.034Z,999.2
2019-03-12T16:14:05.167Z,999.1
2019-03-12T16:15:07.298Z,999.2
2019-03-12T16:16:09.402Z,999
2019-03-12T16:17:11.530Z,999
2019-03-12T16:18:14.957Z,998.9
2019-03-12T16:19:17.098Z,998.9
2019-03-12T16:20:19.499Z,999
2019-03-12T16:21:21.627Z,998.9
2019-03-12T16:22:23.748Z,998.8
2019-03-12T16:23:26.169Z,998.9
2019-03-12T16:24:28.692Z,998.8
2019-03-12T16:25:30.804Z,998.8
2019-03-12T16:26:32.923Z,998.8
2019-03-12T16:27:35.036Z,998.8
2019-03-12T16:28:37.168Z,998.7
2019-03-12T16:29:39.310Z,998.7
2019-03-12T16:30:41.437Z,998.7
2019-03-12T16:31:43.852Z,998.7
2019-03-12T16:32:46.293Z,998.7
2019-03-12T16:33:48.411Z,998.6
2019-03-12T16:34:50.536Z,998.6
2019-03-12T16:35:53.075Z,998.5
2019-03-12T16:36:55.569Z,998.5
2019-03-12T16:37:57.700Z,998.4
2019-03-12T16:39:00.219Z,998.3
2019-03-12T16:40:02.356Z,998.3
2019-03-12T16:41:04.894Z,998.3
2019-03-12T16:42:07.013Z,998.3
2019-03-12T16:43:09.136Z,998.3
2019-03-12T16:44:11.597Z,998.4
2019-03-12T16:45:14.410Z,998.2
2019-03-12T16:46:16.525Z,998.2
2019-03-12T16:47:18.638Z,998.2
2019-03-12T16:48:20.760Z,998.3
2019-03-12T16:49:22.862Z,998.2
2019-03-12T16:50:24.987Z,998.3
2019-03-12T16:51:27.103Z,998.1
2019-03-12T16:52:29.227Z,998.1
2019-03-12T16:53:31.368Z,998.1
2019-03-12T16:54:33.782Z,998.2
2019-03-12T16:55:36.298Z,998
2019-03-12T16:56:45.862Z,998.2
2019-03-12T16:57:48.034Z,998
2019-03-12T16:58:50.201Z,998
2019-03-12T16:59:52.434Z,998.1
2019-03-12T17:00:54.660Z,998
2019-03-12T17:01:56.777Z,998.1
2019-03-12T17:02:58.910Z,998.2
2019-03-12T17:04:01.521Z,998
2019-03-12T17:05:04.300Z,998.1
2019-03-12T17:06:07.075Z,998
2019-03-12T17:07:09.210Z,998
2019-03-12T17:08:11.322Z,998
2019-03-12T17:09:13.732Z,997.8
2019-03-12T17:10:16.388Z,997.9
2019-03-12T17:11:19.844Z,997.9
2019-03-12T17:12:21.969Z,998
2019-03-12T17:13:24.088Z,997.8
2019-03-12T17:14:39.292Z,997.8
2019-03-12T17:15:41.444Z,997.7
2019-03-12T17:16:43.574Z,997.7
2019-03-12T17:17:45.680Z,997.6
2019-03-12T17:18:47.848Z,997.7
2019-03-12T17:19:49.965Z,997.5
2019-03-12T17:20:52.082Z,997.5
2019-03-12T17:21:54.213Z,997.5
2019-03-12T17:22:56.322Z,997.5
2019-03-12T17:23:58.499Z,997.7
2019-03-12T17:25:00.648Z,997.5
2019-03-12T17:26:02.779Z,997.5
2019-03-12T17:27:05.174Z,997.5
2019-03-12T17:28:07.312Z,997.4
2019-03-12T17:29:09.835Z,997.5
2019-03-12T17:30:11.959Z,997.3
2019-03-12T17:31:14.096Z,997.2
2019-03-12T17:32:16.223Z,997.2
2019-03-12T17:33:18.350Z,997.1
2019-03-12T17:34:20.961Z,997
2019-03-12T17:35:37.895Z,997
2019-03-12T17:36:40.052Z,997
2019-03-12T17:37:42.494Z,996.8
2019-03-12T17:38:47.417Z,997
2019-03-12T17:39:49.889Z,996.8
2019-03-12T17:40:52.042Z,996.9
2019-03-12T17:41:54.262Z,996.9
2019-03-12T17:42:56.370Z,996.8
2019-03-12T17:43:58.534Z,996.7
2019-03-12T17:45:00.937Z,996.8
2019-03-12T17:46:03.080Z,996.7
2019-03-12T17:47:05.232Z,996.8
2019-03-12T17:48:07.337Z,996.7
2019-03-12T17:49:13.011Z,996.7
2019-03-12T17:50:15.523Z,996.7
2019-03-12T17:51:17.674Z,996.7
2019-03-12T17:52:19.802Z,996.5
2019-03-12T17:53:21.928Z,996.5
2019-03-12T17:54:24.451Z,996.7
2019-03-12T17:55:26.562Z,996.5
2019-03-12T17:56:28.693Z,996.7
2019-03-12T17:57:30.808Z,996.5
2019-03-12T17:58:32.924Z,996.5
2019-03-12T17:59:35.084Z,996.6
2019-03-12T18:00:37.511Z,996.5
2019-03-12T18:01:39.931Z,996.5
2019-03-12T18:02:43.258Z,996.4
2019-03-12T18:03:45.389Z,996.4
2019-03-12T18:04:47.778Z,996.3
2019-03-12T18:05:49.933Z,996.3
2019-03-12T18:06:52.343Z,996.3
2019-03-12T18:07:54.731Z,996.3
2019-03-12T18:08:57.135Z,996.3
2019-03-12T18:09:59.350Z,996.3
2019-03-12T18:11:01.530Z,996.2
2019-03-12T18:12:03.672Z,996.2
2019-03-12T18:13:05.800Z,996.2
2019-03-12T18:14:07.987Z,996.1
2019-03-12T18:15:10.102Z,996.1
2019-03-12T18:16:12.241Z,996.1
2019-03-12T18:17:14.634Z,996.1
2019-03-12T18:18:16.769Z,996.1
2019-03-12T18:19:18.922Z,996
2019-03-12T18:20:21.129Z,996
2019-03-12T18:21:23.250Z,996
2019-03-12T18:22:25.751Z,996
2019-03-12T18:23:28.530Z,995.9
2019-03-12T18:24:30.663Z,995.9
2019-03-12T18:25:32.765Z,995.8
2019-03-12T18:26:34.957Z,995.8
2019-03-12T18:27:37.068Z,995.8
2019-03-12T18:28:39.177Z,995.9
2019-03-12T18:29:41.374Z,995.8
2019-03-12T18:30:43.786Z,995.8
2019-03-12T18:31:45.912Z,995.8
2019-03-12T18:32:48.030Z,995.7
2019-03-12T18:33:50.550Z,995.6
2019-03-12T18:34:52.935Z,995.7
2019-03-12T18:35:55.728Z,995.6
2019-03-12T18:36:57.871Z,995.6
2019-03-12T18:37:59.980Z,995.6
2019-03-12T18:39:03.659Z,995.5
2019-03-12T18:40:05.782Z,995.5
2019-03-12T18:41:07.894Z,995.5
2019-03-12T18:42:10.033Z,995.6
2019-03-12T18:43:15.171Z,995.5
2019-03-12T18:44:17.307Z,995.3
2019-03-12T18:45:19.455Z,995.3
2019-03-12T18:46:21.869Z,995.3
2019-03-12T18:47:24.261Z,995.4
2019-03-12T18:48:26.377Z,995.4
2019-03-12T18:49:28.494Z,995.4
2019-03-12T18:50:30.604Z,995.3
2019-03-12T18:51:32.737Z,995.2
2019-03-12T18:52:34.888Z,995.3
2019-03-12T18:53:37.000Z,995.2
2019-03-12T18:54:39.129Z,995.3
2019-03-12T18:55:41.247Z,995.2
2019-03-12T18:56:43.365Z,995.4
2019-03-12T18:57:45.485Z,995.2
2019-03-12T18:58:47.882Z,995.2
2019-03-12T18:59:50.022Z,995.1
2019-03-12T19:00:52.148Z,995
2019-03-12T19:01:54.253Z,994.9
2019-03-12T19:02:56.387Z,995
2019-03-12T19:03:58.492Z,995
2019-03-12T19:05:00.958Z,994.9
2019-03-12T19:06:03.082Z,994.9
2019-03-12T19:07:05.241Z,995
2019-03-12T19:08:07.450Z,995
2019-03-12T19:09:09.876Z,995
2019-03-12T19:10:13.683Z,994.9
2019-03-12T19:11:19.140Z,994.8
2019-03-12T19:12:21.273Z,994.8
2019-03-12T19:13:23.431Z,994.9
2019-03-12T19:14:26.103Z,994.7
2019-03-12T19:15:28.239Z,994.8
2019-03-12T19:16:30.365Z,994.6
2019-03-12T19:17:32.531Z,994.7
2019-03-12T19:18:34.659Z,994.6
2019-03-12T19:19:36.774Z,994.6
2019-03-12T19:20:38.884Z,994.6
2019-03-12T19:21:41.401Z,994.5
2019-03-12T19:22:43.811Z,994.5
2019-03-12T19:23:45.918Z,994.4
2019-03-12T19:24:48.045Z,994.4
2019-03-12T19:25:50.490Z,994.4
2019-03-12T19:26:52.612Z,994.2
2019-03-12T19:28:00.647Z,994.2
2019-03-12T19:29:02.849Z,994
2019-03-12T19:30:04.967Z,994.1
2019-03-12T19:31:07.073Z,994
2019-03-12T19:32:09.200Z,994
2019-03-12T19:33:11.306Z,994
2019-03-12T19:34:13.418Z,994
2019-03-12T19:35:15.547Z,993.8
2019-03-12T19:36:17.971Z,993.9
2019-03-12T19:37:20.096Z,993.9
2019-03-12T19:38:22.226Z,993.9
2019-03-12T19:39:24.338Z,993.8
2019-03-12T19:40:26.474Z,993.8
2019-03-12T19:41:28.991Z,993.8
2019-03-12T19:42:31.127Z,993.7
2019-03-12T19:43:33.267Z,993.7
2019-03-12T19:44:35.365Z,993.7
2019-03-12T19:45:37.544Z,993.7
2019-03-12T19:46:39.673Z,993.6
2019-03-12T19:47:41.786Z,993.7
2019-03-12T19:48:43.980Z,993.6
2019-03-12T19:49:46.114Z,993.6
2019-03-12T19:50:48.225Z,993.5
2019-03-12T19:51:50.352Z,993.4
2019-03-12T19:52:52.472Z,993.5
2019-03-12T19:53:54.593Z,993.6
2019-03-12T19:54:57.099Z,993.5
2019-03-12T19:55:59.223Z,993.5
2019-03-12T19:57:01.325Z,993.4
2019-03-12T19:58:03.473Z,993.4
2019-03-12T19:59:05.620Z,993.3
2019-03-12T20:00:07.739Z,993.3
2019-03-12T20:01:09.899Z,993.3
2019-03-12T20:02:16.799Z,993.3
2019-03-12T20:03:18.926Z,993.3
2019-03-12T20:04:21.041Z,993.2
2019-03-12T20:05:23.481Z,993.2
2019-03-12T20:06:25.663Z,993.2
2019-03-12T20:07:28.015Z,993
2019-03-12T20:08:30.144Z,993.1
2019-03-12T20:09:32.324Z,993.1
2019-03-12T20:10:34.768Z,993.2
2019-03-12T20:11:36.882Z,993.1
2019-03-12T20:12:39.035Z,993
2019-03-12T20:13:41.147Z,993
2019-03-12T20:14:43.278Z,993
2019-03-12T20:15:45.671Z,993
2019-03-12T20:16:47.791Z,993
2019-03-12T20:17:49.927Z,992.9
2019-03-12T20:18:52.640Z,992.9
2019-03-12T20:19:54.766Z,992.9
2019-03-12T20:20:56.906Z,993
2019-03-12T20:21:59.026Z,992.9
2019-03-12T20:23:01.431Z,993.1
2019-03-12T20:24:03.553Z,992.9
2019-03-12T20:25:05.679Z,993
2019-03-12T20:26:07.793Z,993.1
2019-03-12T20:27:09.915Z,993
2019-03-12T20:28:12.030Z,992.9
2019-03-12T20:29:14.251Z,992.8
2019-03-12T20:30:16.670Z,992.9
2019-03-12T20:31:19.079Z,992.8
2019-03-12T20:32:21.195Z,992.8
2019-03-12T20:33:23.346Z,992.9
2019-03-12T20:34:25.548Z,992.7
2019-03-12T20:35:27.674Z,992.7
2019-03-12T20:36:29.790Z,992.7
2019-03-12T20:37:31.932Z,992.7
2019-03-12T20:38:34.037Z,992.7
2019-03-12T20:39:36.557Z,992.5
2019-03-12T20:40:38.690Z,992.5
2019-03-12T20:41:40.818Z,992.4
2019-03-12T20:42:42.948Z,992.2
2019-03-12T20:43:45.441Z,992.2
2019-03-12T20:44:47.998Z,992.2
2019-03-12T20:45:50.109Z,992.2
2019-03-12T20:46:52.237Z,992.2
2019-03-12T20:47:54.361Z,992.1
2019-03-12T20:49:11.570Z,992.1
2019-03-12T20:50:13.792Z,992.1
2019-03-12T20:51:15.914Z,992.1
2019-03-12T20:52:18.039Z,992.1
2019-03-12T20:53:20.432Z,992
2019-03-12T20:54:22.558Z,992
2019-03-12T20:55:24.971Z,992
2019-03-12T20:56:27.083Z,992
2019-03-12T20:57:29.216Z,992.1
2019-03-12T20:58:31.324Z,992
2019-03-12T20:59:33.458Z,991.9
2019-03-12T21:00:35.593Z,992
2019-03-12T21:01:37.730Z,991.9
2019-03-12T21:02:39.836Z,992.1
2019-03-12T21:03:41.974Z,992.2
2019-03-12T21:04:44.086Z,992
2019-03-12T21:05:46.196Z,991.9
2019-03-12T21:06:48.617Z,992.1
2019-03-12T21:07:50.746Z,992.1
2019-03-12T21:08:52.868Z,992.3
2019-03-12T21:09:54.993Z,992.1
2019-03-12T21:10:57.118Z,992.1
2019-03-12T21:11:59.232Z,992
2019-03-12T21:13:02.260Z,992.1
2019-03-12T21:14:04.382Z,992
2019-03-12T21:15:06.508Z,992.1
2019-03-12T21:16:08.647Z,991.8
2019-03-12T21:17:10.766Z,992.1
2019-03-12T21:18:13.692Z,992
2019-03-12T21:19:15.812Z,991.9
2019-03-12T21:20:17.980Z,992.2
2019-03-12T21:21:20.109Z,991.8
2019-03-12T21:22:22.821Z,991.5
2019-03-12T21:23:24.940Z,991.8
2019-03-12T21:24:27.037Z,991.6
2019-03-12T21:25:29.169Z,991.4
2019-03-12T21:26:31.288Z,991.7
2019-03-12T21:27:33.398Z,991.6
2019-03-12T21:28:35.515Z,991.3
2019-03-12T21:29:37.651Z,991.4
2019-03-12T21:30:39.767Z,991.5
2019-03-12T21:31:41.902Z,991.8
2019-03-12T21:32:44.038Z,991.3
2019-03-12T21:33:46.152Z,991.3
2019-03-12T21:34:49.533Z,991
2019-03-12T21:35:51.968Z,991.2
2019-03-12T21:36:54.081Z,991
2019-03-12T21:37:57.092Z,991.1
2019-03-12T21:38:59.220Z,990.9
2019-03-12T21:40:01.440Z,990.9
2019-03-12T21:41:03.596Z,990.9
2019-03-12T21:42:06.004Z,990.9
2019-03-12T21:43:08.134Z,990.8
2019-03-12T21:44:10.599Z,990.8
2019-03-12T21:45:13.306Z,990.7
2019-03-12T21:46:15.417Z,990.7
2019-03-12T21:47:17.546Z,990.5
2019-03-12T21:48:19.683Z,990.6
2019-03-12T21:49:21.806Z,990.6
2019-03-12T21:50:24.933Z,990.5
2019-03-12T21:51:27.082Z,990.4
2019-03-12T21:52:29.215Z,990.5
2019-03-12T21:53:31.997Z,990.3
2019-03-12T21:54:34.131Z,990.5
2019-03-12T21:55:38.107Z,990.4
2019-03-12T21:56:40.290Z,990.4
2019-03-12T21:57:42.424Z,990.5
2019-03-12T21:58:44.821Z,990.4
2019-03-12T21:59:46.943Z,990.5
2019-03-12T22:00:49.458Z,990.4
2019-03-12T22:01:51.603Z,990.3
2019-03-12T22:02:53.710Z,990.3
2019-03-12T22:03:55.830Z,990.4
2019-03-12T22:04:57.941Z,990.4
2019-03-12T22:06:00.053Z,990.5
2019-03-12T22:07:02.466Z,990.3
2019-03-12T22:08:04.588Z,990.6
2019-03-12T22:09:07.005Z,990.3
2019-03-12T22:10:09.119Z,990.5
2019-03-12T22:11:11.252Z,990.4
2019-03-12T22:12:13.372Z,990.4
2019-03-12T22:13:15.763Z,990.7
2019-03-12T22:14:17.893Z,990.6
2019-03-12T22:15:20.005Z,990.7
2019-03-12T22:16:22.143Z,990.7
2019-03-12T22:17:24.246Z,990.7
2019-03-12T22:18:26.373Z,990.5
2019-03-12T22:19:28.475Z,990.6
2019-03-12T22:20:30.589Z,990.7
2019-03-12T22:21:33.030Z,990.5
2019-03-12T22:22:35.131Z,990.5
2019-03-12T22:23:37.257Z,990.4
2019-03-12T22:24:39.378Z,990.5
2019-03-12T22:25:41.524Z,990.5
2019-03-12T22:26:43.625Z,990.3
2019-03-12T22:27:45.756Z,990.3
2019-03-12T22:28:48.467Z,990.2
2019-03-12T22:29:51.029Z,990.3
2019-03-12T22:30:53.159Z,990.2
2019-03-12T22:31:55.272Z,990.3
2019-03-12T22:32:57.391Z,990.1
2019-03-12T22:33:59.516Z,990.3
2019-03-12T22:35:01.648Z,990.3
2019-03-12T22:36:04.048Z,990.2
2019-03-12T22:37:06.176Z,989.8
2019-03-12T22:38:08.355Z,990.2
2019-03-12T22:39:10.472Z,990
2019-03-12T22:40:12.598Z,990
2019-03-12T22:41:14.722Z,990.1
2019-03-12T22:42:16.860Z,990
2019-03-12T22:43:19.682Z,990
2019-03-12T22:44:21.791Z,990
2019-03-12T22:45:23.909Z,990
2019-03-12T22:46:26.437Z,989.6
2019-03-12T22:47:28.600Z,989.9
2019-03-12T22:48:30.730Z,989.9
2019-03-12T22:49:32.862Z,989.8
2019-03-12T22:50:35.064Z,989.9
2019-03-12T22:51:37.166Z,989.8
2019-03-12T22:52:39.677Z,989.8
2019-03-12T22:53:41.794Z,989.6
2019-03-12T22:54:43.909Z,989.7
2019-03-12T22:55:46.038Z,989.7
2019-03-12T22:56:48.146Z,989.7
2019-03-12T22:57:50.258Z,989.5
2019-03-12T22:58:52.370Z,989.5
2019-03-12T22:59:54.504Z,989.3
2019-03-12T23:00:56.612Z,989.4
2019-03-12T23:01:59.119Z,989.2
2019-03-12T23:03:01.247Z,989.3
2019-03-12T23:04:03.368Z,989.4
2019-03-12T23:05:05.500Z,989.3
2019-03-12T23:06:07.627Z,989.3
2019-03-12T23:07:10.020Z,989.3
2019-03-12T23:08:12.539Z,989.2
2019-03-12T23:09:15.042Z,989.2
2019-03-12T23:10:17.157Z,989.2
2019-03-12T23:11:19.294Z,989.2
2019-03-12T23:12:21.518Z,989.1
2019-03-12T23:13:23.911Z,989.1
2019-03-12T23:14:26.426Z,989.2
2019-03-12T23:15:28.915Z,989.1
2019-03-12T23:16:31.019Z,989.1
2019-03-12T23:17:33.144Z,989.1
2019-03-12T23:18:35.270Z,989
2019-03-12T23:19:37.376Z,989
2019-03-12T23:20:39.627Z,989
2019-03-12T23:21:41.736Z,989
2019-03-12T23:22:43.853Z,988.8
2019-03-12T23:23:46.348Z,989
2019-03-12T23:24:48.465Z,988.8
2019-03-12T23:25:50.987Z,988.9
2019-03-12T23:26:53.109Z,988.9
2019-03-12T23:27:55.214Z,988.8
2019-03-12T23:28:57.346Z,988.8
2019-03-12T23:29:59.535Z,988.9
2019-03-12T23:31:01.747Z,988.9
2019-03-12T23:32:03.906Z,988.8
2019-03-12T23:33:06.044Z,988.8
2019-03-12T23:34:08.150Z,988.8
2019-03-12T23:35:10.945Z,988.9
2019-03-12T23:36:13.055Z,988.8
2019-03-12T23:37:15.458Z,988.8
2019-03-12T23:38:17.886Z,988.8
2019-03-12T23:39:20.713Z,988.8
2019-03-12T23:40:24.131Z,988.9
2019-03-12T23:41:26.241Z,988.8
2019-03-12T23:42:28.365Z,988.8
2019-03-12T23:43:30.778Z,988.7
2019-03-12T23:44:32.917Z,988.8
2019-03-12T23:45:35.314Z,988.7
2019-03-12T23:46:37.426Z,988.8
2019-03-12T23:47:39.540Z,988.7
2019-03-12T23:48:41.676Z,988.7
2019-03-12T23:49:43.783Z,988.7
2019-03-12T23:50:45.921Z,988.7
2019-03-12T23:51:48.053Z,988.7
2019-03-12T23:52:50.162Z,988.7
2019-03-12T23:53:52.315Z,988.7
2019-03-12T23:54:54.438Z,988.8
2019-03-12T23:55:56.564Z,988.5
2019-03-12T23:56:58.686Z,988.8
2019-03-12T23:58:00.813Z,988.7
2019-03-12T23:59:02.937Z,988.6
